createdAt,value
2018-05-11T14:43:18.445Z,32.01
2018-05-11T14:44:18.425Z,32.21
2018-05-11T14:45:18.413Z,31.05
2018-05-11T14:46:18.409Z,30.75
2018-05-11T14:47:18.408Z,31.80
2018-05-11T14:48:18.387Z,31.89
2018-05-11T14:49:18.377Z,31.88
2018-05-11T14:50:18.364Z,32.26
2018-05-11T14:51:18.359Z,32.84
2018-05-11T14:52:18.348Z,31.12
2018-05-11T14:53:18.348Z,30.39
2018-05-11T14:54:18.333Z,29.27
2018-05-11T14:55:18.325Z,29.84
2018-05-11T14:56:18.316Z,29.61
2018-05-11T14:57:55.307Z,30.66
2018-05-11T14:58:55.291Z,30.55
2018-05-11T14:59:55.278Z,30.18
2018-05-11T15:00:55.268Z,29.26
2018-05-11T15:01:55.263Z,28.04
2018-05-11T15:02:55.250Z,27.54
2018-05-11T15:03:55.251Z,27.06
2018-05-11T15:04:55.231Z,28.19
2018-05-11T15:05:55.222Z,28.97
2018-05-11T15:06:55.215Z,28.50
2018-05-11T15:07:55.206Z,28.50
2018-05-11T15:08:55.212Z,28.58
2018-05-11T15:09:55.188Z,28.41
2018-05-11T15:10:55.180Z,28.17
2018-05-11T15:11:55.175Z,26.17
2018-05-11T15:12:55.163Z,25.37
2018-05-11T15:13:55.154Z,25.95
2018-05-11T15:14:55.156Z,26.81
2018-05-11T15:15:55.142Z,26.44
2018-05-11T15:16:55.130Z,25.38
2018-05-11T15:17:55.122Z,22.97
2018-05-11T15:18:55.115Z,22.78
2018-05-11T15:19:55.116Z,22.92
2018-05-11T15:20:55.099Z,22.46
2018-05-11T15:21:55.092Z,21.00
2018-05-11T15:22:55.087Z,20.80
2018-05-11T15:23:55.078Z,22.05
2018-05-11T15:24:55.091Z,22.81
2018-05-11T15:25:55.063Z,24.23
2018-05-11T15:26:55.059Z,23.08
2018-05-11T15:27:55.052Z,23.94
2018-05-11T15:28:55.047Z,24.82
2018-05-11T15:29:55.042Z,23.82
2018-05-11T15:30:55.048Z,24.61
2018-05-11T15:31:55.032Z,25.15
2018-05-11T15:32:55.023Z,26.39
2018-05-11T15:33:55.017Z,26.72
2018-05-11T15:34:55.012Z,26.09
2018-05-11T15:35:55.019Z,25.56
2018-05-11T15:36:54.999Z,27.43
2018-05-11T15:37:54.996Z,27.26
2018-05-11T15:38:55.016Z,30.88
2018-05-11T15:39:54.988Z,32.65
2018-05-11T15:40:54.977Z,33.81
2018-05-11T15:41:54.984Z,33.73
2018-05-11T15:42:54.963Z,33.18
2018-05-11T15:43:54.954Z,30.88
2018-05-11T15:44:54.948Z,31.46
2018-05-11T15:45:54.943Z,31.46
2018-05-11T15:46:54.945Z,31.56
2018-05-11T15:47:54.948Z,30.99
2018-05-11T15:48:54.934Z,31.68
2018-05-11T15:49:54.917Z,29.60
2018-05-11T15:50:54.914Z,29.36
2018-05-11T15:51:54.910Z,30.04
2018-05-11T15:52:54.889Z,30.58
2018-05-11T15:53:54.879Z,30.96
2018-05-11T15:54:54.871Z,32.29
2018-05-11T15:55:54.863Z,33.25
2018-05-11T15:56:54.855Z,33.72
2018-05-11T15:57:54.859Z,33.33
2018-05-11T15:58:54.840Z,34.87
2018-05-11T15:59:54.830Z,35.72
2018-05-11T16:00:54.821Z,35.71
2018-05-11T16:01:54.812Z,37.25
2018-05-11T16:02:54.805Z,38.10
2018-05-11T16:03:54.804Z,37.15
2018-05-11T16:04:54.786Z,37.54
2018-05-11T16:05:54.862Z,37.73
2018-05-11T16:06:54.768Z,37.45
2018-05-11T16:07:54.759Z,37.73
2018-05-11T16:08:54.761Z,38.70
2018-05-11T16:09:54.740Z,37.62
2018-05-11T16:10:54.732Z,38.29
2018-05-11T16:11:54.720Z,38.58
2018-05-11T16:12:54.874Z,38.87
2018-05-11T16:13:54.716Z,39.24
2018-05-11T16:14:54.691Z,38.58
2018-05-11T16:15:54.681Z,38.29
2018-05-11T16:16:54.670Z,36.77
2018-05-11T16:17:54.658Z,37.04
2018-05-11T16:18:54.649Z,37.52
2018-05-11T16:19:54.670Z,38.20
2018-05-11T16:20:54.671Z,38.58
2018-05-11T16:21:54.617Z,38.97
2018-05-11T16:22:54.606Z,38.02
2018-05-11T16:23:54.598Z,37.10
2018-05-11T16:24:54.588Z,36.13
2018-05-11T16:25:54.585Z,36.30
2018-05-11T16:26:54.652Z,37.15
2018-05-11T16:27:54.554Z,38.20
2018-05-11T16:28:54.544Z,38.01
2018-05-11T16:29:54.533Z,38.97
2018-05-11T16:30:54.533Z,39.54
2018-05-11T16:31:54.515Z,39.04
2018-05-11T16:32:54.500Z,38.95
2018-05-11T16:33:54.489Z,39.24
2018-05-11T16:34:54.479Z,39.26
2018-05-11T16:35:54.475Z,38.76
2018-05-11T16:36:54.461Z,39.84
2018-05-11T16:37:54.445Z,38.87
2018-05-11T16:38:54.434Z,39.04
2018-05-11T16:39:54.424Z,40.11
2018-05-11T16:40:54.424Z,40.01
2018-05-11T16:41:54.407Z,40.20
2018-05-11T16:42:54.390Z,40.01
2018-05-11T16:43:54.377Z,41.07
2018-05-11T16:44:54.368Z,39.82
2018-05-11T16:45:54.352Z,40.57
2018-05-11T16:46:54.357Z,41.63
2018-05-11T16:47:54.330Z,40.76
2018-05-11T16:48:54.318Z,41.05
2018-05-11T16:49:54.308Z,41.92
2018-05-11T16:50:54.296Z,41.72
2018-05-11T16:51:54.298Z,40.97
2018-05-11T16:52:54.271Z,41.65
2018-05-11T16:53:54.262Z,39.57
2018-05-11T16:54:54.260Z,37.70
2018-05-11T16:55:54.234Z,36.00
2018-05-11T16:56:54.225Z,34.28
2018-05-11T16:57:54.223Z,34.28
2018-05-11T16:58:54.204Z,34.15
2018-05-11T16:59:54.192Z,35.68
2018-05-11T17:00:54.181Z,35.88
2018-05-11T17:01:54.170Z,35.74
2018-05-11T17:02:54.168Z,37.08
2018-05-11T17:03:54.148Z,38.31
2018-05-11T17:04:54.139Z,38.87
2018-05-11T17:05:54.130Z,39.84
2018-05-11T17:06:54.119Z,40.32
2018-05-11T17:07:54.116Z,40.30
2018-05-11T17:08:54.097Z,41.14
2018-05-11T17:09:54.084Z,40.76
2018-05-11T17:10:54.075Z,40.76
2018-05-11T17:11:54.064Z,41.92
2018-05-11T17:12:54.069Z,41.72
2018-05-11T17:13:54.042Z,41.92
2018-05-11T17:14:54.036Z,42.02
2018-05-11T17:15:54.017Z,42.02
2018-05-11T17:16:54.007Z,42.79
2018-05-11T17:17:53.996Z,42.59
2018-05-11T17:18:54.020Z,43.92
2018-05-11T17:19:53.973Z,43.15
2018-05-11T17:20:53.960Z,42.79
2018-05-11T17:21:53.951Z,42.03
2018-05-11T17:22:53.997Z,42.69
2018-05-11T17:23:53.927Z,43.46
2018-05-11T17:24:53.924Z,42.79
2018-05-11T17:25:53.902Z,42.40
2018-05-11T17:26:53.890Z,41.75
2018-05-11T17:27:53.878Z,39.41
2018-05-11T17:28:53.869Z,37.23
2018-05-11T17:29:53.936Z,35.35
2018-05-11T17:30:53.844Z,34.38
2018-05-11T17:31:53.834Z,34.41
2018-05-11T17:32:53.826Z,33.36
2018-05-11T17:33:53.812Z,33.36
2018-05-11T17:34:53.825Z,32.18
2018-05-11T17:35:53.789Z,33.12
2018-05-11T17:36:53.777Z,33.33
2018-05-11T17:37:53.770Z,32.92
2018-05-11T17:38:53.761Z,33.97
2018-05-11T17:39:53.748Z,35.21
2018-05-11T17:40:53.754Z,35.60
2018-05-11T17:41:53.732Z,35.68
2018-05-11T17:42:53.723Z,34.89
2018-05-11T17:43:53.713Z,36.22
2018-05-11T17:44:53.703Z,37.81
2018-05-11T17:45:53.698Z,39.62
2018-05-11T17:46:53.695Z,40.11
2018-05-11T17:47:53.676Z,41.14
2018-05-11T17:48:53.666Z,41.72
2018-05-11T17:49:53.654Z,41.63
2018-05-11T17:50:53.651Z,42.11
2018-05-11T17:51:53.650Z,41.71
2018-05-11T17:52:53.625Z,41.61
2018-05-11T17:53:53.615Z,42.47
2018-05-11T17:54:53.604Z,42.38
2018-05-11T17:55:53.595Z,43.82
2018-05-11T17:56:53.658Z,42.86
2018-05-11T17:57:53.587Z,43.23
2018-05-11T17:58:53.560Z,43.80
2018-05-11T17:59:53.547Z,43.13
2018-05-11T18:00:53.536Z,43.71
2018-05-11T18:01:53.523Z,43.90
2018-05-11T18:02:53.512Z,44.38
2018-05-11T18:03:53.512Z,44.35
2018-05-11T18:04:53.492Z,44.07
2018-05-11T18:05:53.478Z,44.19
2018-05-11T18:06:53.465Z,44.19
2018-05-11T18:07:53.450Z,44.09
2018-05-11T18:08:53.453Z,43.99
2018-05-11T18:09:53.428Z,44.35
2018-05-11T18:10:53.416Z,44.35
2018-05-11T18:11:53.405Z,44.55
2018-05-11T18:12:53.392Z,44.93
2018-05-11T18:13:53.378Z,45.32
2018-05-11T18:14:53.376Z,45.70
2018-05-11T18:15:53.354Z,45.59
2018-05-11T18:16:53.341Z,46.74
2018-05-11T18:17:53.328Z,46.64
2018-05-11T18:18:53.357Z,46.26
2018-05-11T18:19:53.314Z,46.64
2018-05-11T18:20:53.287Z,46.93
2018-05-11T18:21:53.276Z,47.03
2018-05-11T18:22:53.260Z,47.41
2018-05-11T18:23:53.246Z,47.61
2018-05-11T18:24:53.236Z,47.51
2018-05-11T18:25:53.231Z,47.87
2018-05-11T18:26:53.211Z,47.77
2018-05-11T18:27:53.193Z,48.64
2018-05-11T18:28:53.181Z,48.54
2018-05-11T18:29:53.168Z,48.93
2018-05-11T18:30:53.244Z,49.57
2018-05-11T18:31:53.139Z,49.87
2018-05-11T18:32:53.126Z,49.87
2018-05-11T18:33:53.112Z,49.87
2018-05-11T18:34:53.098Z,50.73
2018-05-11T18:35:53.086Z,51.40
2018-05-11T18:36:53.079Z,50.73
2018-05-11T18:37:53.055Z,51.86
2018-05-11T18:38:53.044Z,52.62
2018-05-11T18:39:53.032Z,52.53
2018-05-11T18:40:53.018Z,53.87
2018-05-11T18:41:53.019Z,54.06
2018-05-11T18:42:52.990Z,54.80
2018-05-11T18:43:52.977Z,54.52
2018-05-11T18:44:52.960Z,54.71
2018-05-11T18:45:52.943Z,55.00
2018-05-11T18:46:52.933Z,54.80
2018-05-11T18:47:52.923Z,55.00
2018-05-11T18:48:52.900Z,55.29
2018-05-11T18:49:52.889Z,55.67
2018-05-11T18:50:52.871Z,55.86
2018-05-11T18:51:52.856Z,55.26
2018-05-11T18:52:52.893Z,56.60
2018-05-11T18:53:53.056Z,57.37
2018-05-11T18:54:52.813Z,57.08
2018-05-11T18:55:52.797Z,57.08
2018-05-11T18:56:52.784Z,56.70
2018-05-11T18:57:52.769Z,57.28
2018-05-11T18:58:52.769Z,57.46
2018-05-11T18:59:52.737Z,57.85
2018-05-11T19:00:52.725Z,57.65
2018-05-11T19:01:52.711Z,58.04
2018-05-11T19:02:52.695Z,57.08
2018-05-11T19:03:52.719Z,57.08
2018-05-11T19:04:52.667Z,57.46
2018-05-11T19:05:52.651Z,57.53
2018-05-11T19:06:52.636Z,57.15
2018-05-11T19:07:52.620Z,57.53
2018-05-11T19:08:52.633Z,57.34
2018-05-11T19:09:52.604Z,57.37
2018-05-11T19:10:52.577Z,57.08
2018-05-11T19:11:52.561Z,56.98
2018-05-11T19:12:52.547Z,57.65
2018-05-11T19:13:52.530Z,57.72
2018-05-11T19:14:52.529Z,57.92
2018-05-11T19:15:52.505Z,58.49
2018-05-11T19:16:52.485Z,58.87
2018-05-11T19:17:52.481Z,59.36
2018-05-11T19:18:52.454Z,59.26
2018-05-11T19:19:52.453Z,60.12
2018-05-11T19:20:52.427Z,60.31
2018-05-11T19:21:52.413Z,60.41
2018-05-11T19:22:52.396Z,61.37
2018-05-11T19:23:52.379Z,61.27
2018-05-11T19:24:52.375Z,61.18
2018-05-11T19:25:52.362Z,61.15
2018-05-11T19:26:52.340Z,61.15
2018-05-11T19:27:52.322Z,61.24
2018-05-11T19:28:52.302Z,61.72
2018-05-11T19:29:52.289Z,62.49
2018-05-11T19:30:52.290Z,62.20
2018-05-11T19:31:52.261Z,63.16
2018-05-11T19:32:52.242Z,62.68
2018-05-11T19:33:52.236Z,62.68
2018-05-11T19:34:52.214Z,63.06
2018-05-11T19:35:52.193Z,62.74
2018-05-11T19:36:52.186Z,62.65
2018-05-11T19:37:52.165Z,63.13
2018-05-11T19:38:52.150Z,64.09
2018-05-11T19:39:52.132Z,65.05
2018-05-11T19:40:52.121Z,65.52
2018-05-11T19:41:52.111Z,65.33
2018-05-11T19:42:52.088Z,65.62
2018-05-11T19:43:52.071Z,64.76
2018-05-11T19:44:52.058Z,65.49
2018-05-11T19:45:52.041Z,66.19
2018-05-11T19:46:52.299Z,66.19
2018-05-11T19:47:52.009Z,65.81
2018-05-11T19:48:51.993Z,66.25
2018-05-11T19:49:51.977Z,66.35
2018-05-11T19:50:51.962Z,67.41
2018-05-11T19:51:51.946Z,67.60
2018-05-11T19:52:51.939Z,67.11
2018-05-11T19:53:51.916Z,67.31
2018-05-11T19:54:51.898Z,68.07
2018-05-11T19:55:51.976Z,67.88
2018-05-11T19:56:51.867Z,68.17
2018-05-11T19:57:51.883Z,67.98
2018-05-11T19:58:51.835Z,67.98
2018-05-11T19:59:51.822Z,67.21
2018-05-11T20:00:51.804Z,67.21
2018-05-11T20:01:51.788Z,67.11
2018-05-11T20:02:51.772Z,66.74
2018-05-11T20:03:51.766Z,66.54
2018-05-11T20:04:51.738Z,65.97
2018-05-11T20:05:51.722Z,65.30
2018-05-11T20:06:51.708Z,65.23
2018-05-11T20:07:51.692Z,64.95
2018-05-11T20:08:51.685Z,65.23
2018-05-11T20:09:51.660Z,64.95
2018-05-11T20:10:51.662Z,65.23
2018-05-11T20:11:51.628Z,65.05
2018-05-11T20:12:51.610Z,64.82
2018-05-11T20:13:51.611Z,65.33
2018-05-11T20:14:51.580Z,65.30
2018-05-11T20:15:51.565Z,65.88
2018-05-11T20:16:51.552Z,65.88
2018-05-11T20:17:51.529Z,65.97
2018-05-11T20:18:51.514Z,66.25
2018-05-11T20:19:51.508Z,66.16
2018-05-11T20:20:51.482Z,66.16
2018-05-11T20:21:51.465Z,66.74
2018-05-11T20:22:51.448Z,67.21
2018-05-11T20:23:51.433Z,68.17
2018-05-11T20:24:51.466Z,68.07
2018-05-11T20:25:51.401Z,67.69
2018-05-11T20:26:51.384Z,67.79
2018-05-11T20:27:51.366Z,67.88
2018-05-11T20:28:51.352Z,67.88
2018-05-11T20:29:51.393Z,68.07
2018-05-11T20:30:51.327Z,68.33
2018-05-11T20:31:51.301Z,68.46
2018-05-11T20:32:51.369Z,68.46
2018-05-11T20:33:51.269Z,68.46
2018-05-11T20:34:51.255Z,68.23
2018-05-11T20:35:51.245Z,68.07
2018-05-11T20:36:51.220Z,68.13
2018-05-11T20:37:51.203Z,68.84
2018-05-11T20:38:51.187Z,69.19
2018-05-11T20:39:51.170Z,69.86
2018-05-11T20:40:51.167Z,69.00
2018-05-11T20:41:51.138Z,69.00
2018-05-11T20:42:51.124Z,69.00
2018-05-11T20:43:51.107Z,69.86
2018-05-11T20:44:51.087Z,69.00
2018-05-11T20:45:51.070Z,69.19
2018-05-11T20:46:51.066Z,69.00
2018-05-11T20:47:51.037Z,68.80
2018-05-11T20:48:51.018Z,68.71
2018-05-11T20:49:51.007Z,68.80
2018-05-11T20:50:51.073Z,68.42
2018-05-11T20:51:50.981Z,68.33
2018-05-11T20:52:50.957Z,68.52
2018-05-11T20:53:50.939Z,68.42
2018-05-11T20:54:50.926Z,68.90
2018-05-11T20:55:50.905Z,69.09
2018-05-11T20:56:50.887Z,69.00
2018-05-11T20:57:50.970Z,69.67
2018-05-11T20:58:50.856Z,69.67
2018-05-11T20:59:50.841Z,69.76
2018-05-11T21:00:50.823Z,69.76
2018-05-11T21:01:50.808Z,70.21
2018-05-11T21:02:50.807Z,70.53
2018-05-11T21:03:50.770Z,70.50
2018-05-11T21:04:50.807Z,70.50
2018-05-11T21:05:50.738Z,71.45
2018-05-11T21:06:50.725Z,71.45
2018-05-11T21:07:50.704Z,71.07
2018-05-11T21:08:50.699Z,71.36
2018-05-11T21:09:50.673Z,71.55
2018-05-11T21:10:50.660Z,72.50
2018-05-11T21:11:50.642Z,72.41
2018-05-11T21:12:50.623Z,71.93
2018-05-11T21:13:50.616Z,72.41
2018-05-11T21:14:50.704Z,72.31
2018-05-11T21:15:50.571Z,71.89
2018-05-11T21:16:50.552Z,71.70
2018-05-11T21:17:50.536Z,72.37
2018-05-11T21:18:50.519Z,71.70
2018-05-11T21:19:50.513Z,71.80
2018-05-11T21:20:50.489Z,71.99
2018-05-11T21:21:50.467Z,71.36
2018-05-11T21:22:50.451Z,71.80
2018-05-11T21:23:50.437Z,71.80
2018-05-11T21:24:50.415Z,71.70
2018-05-11T21:25:50.409Z,72.28
2018-05-11T21:26:50.386Z,72.08
2018-05-11T21:27:50.368Z,73.04
2018-05-11T21:28:50.351Z,72.56
2018-05-11T21:29:50.331Z,73.43
2018-05-11T21:30:50.332Z,73.43
2018-05-11T21:31:50.296Z,73.61
2018-05-11T21:32:50.279Z,73.52
2018-05-11T21:33:50.267Z,74.48
2018-05-11T21:34:50.245Z,73.99
2018-05-11T21:35:50.231Z,73.99
2018-05-11T21:36:50.218Z,74.34
2018-05-11T21:37:50.196Z,74.66
2018-05-11T21:38:50.176Z,75.20
2018-05-11T21:39:50.159Z,75.01
2018-05-11T21:40:50.157Z,75.10
2018-05-11T21:41:50.157Z,75.49
2018-05-11T21:42:50.106Z,75.39
2018-05-11T21:43:50.089Z,75.20
2018-05-11T21:44:50.071Z,75.39
2018-05-11T21:45:50.054Z,75.20
2018-05-11T21:46:50.045Z,75.39
2018-05-11T21:47:50.028Z,75.87
2018-05-11T21:48:50.002Z,75.96
2018-05-11T21:49:49.983Z,75.49
2018-05-11T21:50:49.970Z,75.10
2018-05-11T21:51:49.951Z,75.39
2018-05-11T21:52:49.941Z,75.01
2018-05-11T21:53:49.916Z,75.01
2018-05-11T21:54:49.897Z,75.01
2018-05-11T21:55:49.879Z,75.20
2018-05-11T21:56:49.864Z,75.10
2018-05-11T21:57:49.857Z,75.10
2018-05-11T21:58:49.828Z,75.30
2018-05-11T21:59:49.809Z,75.01
2018-05-11T22:00:49.793Z,75.59
2018-05-11T22:01:49.775Z,75.39
2018-05-11T22:02:49.768Z,75.20
2018-05-11T22:03:49.738Z,75.87
2018-05-11T22:04:49.722Z,75.87
2018-05-11T22:05:49.706Z,75.96
2018-05-11T22:06:49.691Z,76.50
2018-05-11T22:07:49.688Z,75.54
2018-05-11T22:08:49.651Z,75.93
2018-05-11T22:09:49.632Z,75.83
2018-05-11T22:10:49.617Z,75.83
2018-05-11T22:11:49.598Z,76.45
2018-05-11T22:12:49.582Z,76.64
2018-05-11T22:13:49.577Z,76.21
2018-05-11T22:14:49.547Z,76.69
2018-05-11T22:15:49.524Z,76.88
2018-05-11T22:16:49.511Z,76.79
2018-05-11T22:17:49.494Z,77.26
2018-05-11T22:18:49.475Z,77.55
2018-05-11T22:19:49.461Z,77.65
2018-05-11T22:20:49.435Z,77.17
2018-05-11T22:21:49.420Z,76.98
2018-05-11T22:22:49.401Z,76.98
2018-05-11T22:23:49.383Z,77.36
2018-05-11T22:24:49.374Z,77.45
2018-05-11T22:25:49.349Z,78.13
2018-05-11T22:26:49.333Z,77.74
2018-05-11T22:27:49.313Z,78.03
2018-05-11T22:28:49.294Z,78.41
2018-05-11T22:29:49.290Z,78.22
2018-05-11T22:30:49.259Z,78.41
2018-05-11T22:31:49.241Z,78.60
2018-05-11T22:32:49.222Z,78.31
2018-05-11T22:33:49.205Z,78.70
2018-05-11T22:34:49.201Z,78.79
2018-05-11T22:35:49.168Z,78.79
2018-05-11T22:36:49.155Z,78.89
2018-05-11T22:37:49.149Z,78.89
2018-05-11T22:38:49.114Z,78.66
2018-05-11T22:39:49.098Z,79.33
2018-05-11T22:40:49.091Z,79.52
2018-05-11T22:41:49.061Z,79.43
2018-05-11T22:42:49.047Z,79.43
2018-05-11T22:43:49.025Z,79.52
2018-05-11T22:44:49.006Z,79.90
2018-05-11T22:45:48.989Z,79.43
2018-05-11T22:46:48.982Z,79.71
2018-05-11T22:47:48.955Z,79.80
2018-05-11T22:48:48.935Z,79.90
2018-05-11T22:49:48.916Z,79.80
2018-05-11T22:50:48.901Z,79.61
2018-05-11T22:51:48.893Z,79.61
2018-05-11T22:52:48.862Z,79.52
2018-05-11T22:53:48.844Z,79.80
2018-05-11T22:54:48.826Z,79.61
2018-05-11T22:55:48.809Z,79.52
2018-05-11T22:56:48.800Z,79.90
2018-05-11T22:57:48.771Z,80.09
2018-05-11T22:58:48.753Z,79.80
2018-05-11T22:59:48.740Z,79.99
2018-05-11T23:00:48.721Z,79.99
2018-05-11T23:01:48.714Z,79.90
2018-05-11T23:02:48.681Z,79.71
2018-05-11T23:03:48.665Z,79.71
2018-05-11T23:04:48.644Z,79.90
2018-05-11T23:05:48.627Z,79.61
2018-05-11T23:06:48.608Z,79.71
2018-05-11T23:07:48.613Z,79.90
2018-05-11T23:08:48.572Z,79.90
2018-05-11T23:09:48.551Z,79.80
2018-05-11T23:10:48.545Z,79.90
2018-05-11T23:11:48.521Z,80.19
2018-05-11T23:12:48.500Z,80.19
2018-05-11T23:13:48.491Z,80.47
2018-05-11T23:14:48.463Z,80.38
2018-05-11T23:15:48.446Z,80.61
2018-05-11T23:16:48.426Z,80.85
2018-05-11T23:17:48.410Z,80.66
2018-05-11T23:18:48.399Z,80.66
2018-05-11T23:19:48.372Z,80.47
2018-05-11T23:20:48.353Z,80.66
2018-05-11T23:21:48.399Z,81.24
2018-05-11T23:22:48.318Z,81.04
2018-05-11T23:23:48.311Z,81.14
2018-05-11T23:24:48.280Z,81.24
2018-05-11T23:25:48.266Z,81.24
2018-05-11T23:26:48.245Z,81.04
2018-05-11T23:27:48.308Z,81.14
2018-05-11T23:28:48.222Z,81.14
2018-05-11T23:29:48.191Z,81.14
2018-05-11T23:30:48.173Z,81.04
2018-05-11T23:31:48.155Z,81.14
2018-05-11T23:32:48.135Z,81.62
2018-05-11T23:33:48.117Z,82.09
2018-05-11T23:34:48.114Z,81.62
2018-05-11T23:35:48.080Z,81.81
2018-05-11T23:36:48.067Z,81.90
2018-05-11T23:37:48.046Z,81.90
2018-05-11T23:38:48.027Z,81.81
2018-05-11T23:39:48.008Z,82.29
2018-05-11T23:40:48.000Z,82.19
2018-05-11T23:41:47.971Z,82.09
2018-05-11T23:42:47.960Z,82.29
2018-05-11T23:43:47.935Z,82.19
2018-05-11T23:44:47.916Z,82.09
2018-05-11T23:45:47.908Z,82.29
2018-05-11T23:46:47.884Z,82.00
2018-05-11T23:47:47.862Z,82.19
2018-05-11T23:48:47.844Z,81.81
2018-05-11T23:49:47.906Z,81.81
2018-05-11T23:50:47.821Z,82.29
2018-05-11T23:51:47.790Z,82.19
2018-05-11T23:52:47.770Z,81.71
2018-05-11T23:53:47.753Z,81.90
2018-05-11T23:54:47.734Z,82.19
2018-05-11T23:55:47.719Z,81.90
2018-05-11T23:56:47.712Z,81.81
2018-05-11T23:57:47.679Z,82.38
2018-05-11T23:58:47.662Z,82.38
2018-05-11T23:59:47.644Z,82.95
